Terminal Aerodrome Forecast
Issued by NWS St Louis, MO

Home | Current Version | Previous Version | Text Only | Print | Product List | Glossary On
Versions: 1 2 3 4 5 6 7 8 9 10 11 12 13 14 15 16 17 18 19 20 21 22 23 24 25 26 27
000
FTUS43 KLSX 051600 AAC
TAFCOU
TAF AMD
KCOU 051615Z 0516/0612 35008KT P6SM SCT020
      TEMPO 0516/0518 BKN020
     FM051800 33008KT P6SM SCT020
     FM052300 VRB04KT P6SM SKC
     FM060700 16008KT P6SM SCT120=

USA.gov is the U.S. government's official web portal to all federal, state and local government web resources and services.